Time;durP1;ratioP1;P1;durP2;ratioP2;P2;SDS_P1;SDS_P2;PMS_P1;PMS_P2;Temp;Humidity;BMP_temperature;BMP_pressure;BME280_temperature;BME280_humidity;BME280_pressure;Samples;Min_cycle;Max_cycle;Signal;HPM_P1;HPM_P2
2023/09/19 00:00:59;;;;;;;10.75;1.95;;;;;;;16.02;75.42;100693.97;5039929;28;20561;-68
2023/09/19 00:03:25;;;;;;;13.55;2.30;;;;;;;16.02;75.47;100684.16;5039789;28;20387;-68
2023/09/19 00:05:50;;;;;;;13.07;2.50;;;;;;;16.00;75.51;100687.91;5049705;28;20472;-68
2023/09/19 00:08:16;;;;;;;8.65;2.45;;;;;;;16.01;75.71;100702.94;5035831;28;20047;-68
2023/09/19 00:10:42;;;;;;;12.15;2.58;;;;;;;15.95;75.52;100701.53;5045024;28;20036;-68
2023/09/19 00:13:12;;;;;;;7.18;2.33;;;;;;;15.93;75.72;100699.91;5037949;28;20052;-68
2023/09/19 00:15:48;;;;;;;14.82;2.47;;;;;;;15.89;75.37;100709.91;5052524;28;20480;-68
2023/09/19 00:18:18;;;;;;;12.18;1.95;;;;;;;15.84;75.74;100708.50;5040314;28;20060;-68
2023/09/19 00:20:51;;;;;;;10.43;2.85;;;;;;;15.82;75.89;100708.59;5051841;28;20476;-68
2023/09/19 00:23:16;;;;;;;13.27;2.58;;;;;;;15.78;75.89;100715.06;5046269;28;20044;-68
2023/09/19 00:25:42;;;;;;;13.32;2.10;;;;;;;15.73;76.06;100712.69;5035403;28;20029;-68
2023/09/19 00:28:07;;;;;;;10.80;2.20;;;;;;;15.79;76.16;100720.28;5044141;28;20028;-68
2023/09/19 00:30:38;;;;;;;10.52;2.40;;;;;;;15.82;76.10;100722.78;5049251;28;20098;-68
2023/09/19 00:33:06;;;;;;;10.20;2.17;;;;;;;15.76;76.12;100725.84;5042572;28;20453;-68
2023/09/19 00:35:31;;;;;;;7.05;1.90;;;;;;;15.77;76.12;100727.56;5042856;28;20029;-68
2023/09/19 00:37:56;;;;;;;10.10;2.85;;;;;;;15.75;75.47;100734.78;5024636;28;20538;-68
2023/09/19 00:40:21;;;;;;;8.95;2.17;;;;;;;15.71;75.62;100730.59;5045939;28;20544;-68
2023/09/19 00:42:48;;;;;;;15.35;2.25;;;;;;;15.73;75.30;100734.03;5042215;28;20025;-68
2023/09/19 00:45:16;;;;;;;9.38;2.38;;;;;;;15.67;75.72;100737.09;5046642;28;20643;-68
2023/09/19 00:47:45;;;;;;;12.25;2.85;;;;;;;15.70;75.74;100728.88;5034522;28;20043;-68
2023/09/19 00:50:14;;;;;;;8.88;2.17;;;;;;;15.64;75.40;100745.25;5039270;28;20040;-68
2023/09/19 00:52:41;;;;;;;10.40;2.33;;;;;;;15.67;75.70;100739.75;5043268;28;20025;-68
2023/09/19 00:55:08;;;;;;;7.20;2.15;;;;;;;15.69;74.66;100750.31;5044554;28;20493;-68
2023/09/19 00:57:35;;;;;;;9.43;2.53;;;;;;;15.66;74.80;100750.50;5022031;28;20021;-68
2023/09/19 01:00:05;;;;;;;10.50;2.10;;;;;;;15.65;74.73;100754.97;5042740;28;20033;-68
2023/09/19 01:02:31;;;;;;;11.10;2.47;;;;;;;15.59;74.90;100768.66;5046688;28;20039;-68
2023/09/19 01:04:57;;;;;;;13.77;2.60;;;;;;;15.52;74.95;100767.31;5043376;28;20032;-68
2023/09/19 01:07:23;;;;;;;5.70;1.90;;;;;;;15.48;74.99;100773.78;5043848;28;20053;-68
2023/09/19 01:09:49;;;;;;;7.40;1.85;;;;;;;15.47;75.28;100769.41;5040256;28;20315;-67
2023/09/19 01:12:23;;;;;;;9.00;2.50;;;;;;;15.42;75.26;100776.81;5043416;28;20064;-67
2023/09/19 01:15:04;;;;;;;10.93;2.17;;;;;;;15.42;75.36;100769.69;5037786;28;20028;-68
2023/09/19 01:17:42;;;;;;;8.18;1.95;;;;;;;15.41;75.27;100770.63;5016598;28;20449;-67
2023/09/19 01:20:20;;;;;;;11.20;2.50;;;;;;;15.40;75.00;100774.25;5041693;28;20443;-68
2023/09/19 01:23:04;;;;;;;14.85;2.10;;;;;;;15.39;75.24;100771.66;5049656;28;20030;-68
2023/09/19 01:25:56;;;;;;;11.52;2.67;;;;;;;15.40;74.73;100779.59;5040752;28;20021;-68
2023/09/19 01:28:36;;;;;;;6.00;2.38;;;;;;;15.32;74.58;100780.03;5045191;28;20024;-67
2023/09/19 01:31:03;;;;;;;9.70;2.33;;;;;;;15.33;74.28;100778.22;5046345;28;20028;-68
2023/09/19 01:33:33;;;;;;;11.15;2.20;;;;;;;15.34;73.97;100784.41;5042471;28;20049;-68
2023/09/19 01:35:59;;;;;;;8.48;2.28;;;;;;;15.32;73.26;100785.38;5040598;28;20024;-67
2023/09/19 01:38:25;;;;;;;7.85;1.50;;;;;;;15.34;73.47;100790.63;5039869;28;20239;-68
2023/09/19 01:41:07;;;;;;;9.40;2.75;;;;;;;15.31;73.87;100791.66;5036881;28;20024;-68
2023/09/19 01:43:43;;;;;;;12.35;2.17;;;;;;;15.36;73.52;100798.53;5042829;28;20035;-68
2023/09/19 01:46:35;;;;;;;8.77;2.00;;;;;;;15.38;72.70;100801.94;5040755;28;20080;-68
2023/09/19 01:49:03;;;;;;;8.77;1.98;;;;;;;15.34;72.65;100797.72;5031659;28;20033;-68
2023/09/19 01:51:37;;;;;;;10.43;2.20;;;;;;;15.32;72.83;100796.03;5045129;28;20120;-67
2023/09/19 01:54:09;;;;;;;9.20;2.15;;;;;;;15.34;72.70;100801.28;5048464;28;20112;-68
2023/09/19 01:56:37;;;;;;;;;;;;;;;15.47;72.45;100799.56;5038592;28;20530;-67
2023/09/19 01:59:10;;;;;;;8.32;2.15;;;;;;;15.27;72.58;100800.78;5039533;28;20423;-67
2023/09/19 02:01:37;;;;;;;6.40;1.55;;;;;;;15.28;72.05;100797.16;5042566;28;20105;-67
2023/09/19 02:04:04;;;;;;;14.80;2.13;;;;;;;15.26;71.08;100788.41;5041029;28;20065;-68
2023/09/19 02:06:29;;;;;;;7.60;1.95;;;;;;;15.25;71.61;100796.50;5042289;28;20114;-68
2023/09/19 02:08:55;;;;;;;9.48;2.05;;;;;;;15.19;71.67;100795.03;5036965;28;20554;-67
2023/09/19 02:11:20;;;;;;;8.27;2.42;;;;;;;15.14;71.70;100791.81;5041601;28;20023;-68
2023/09/19 02:13:46;;;;;;;9.48;2.45;;;;;;;15.10;71.54;100786.75;5038783;28;20472;-67
2023/09/19 02:16:12;;;;;;;8.30;2.33;;;;;;;15.12;71.25;100791.06;5039397;28;20037;-69
2023/09/19 02:18:39;;;;;;;8.02;2.45;;;;;;;15.09;70.88;100801.03;5041290;28;20138;-67
2023/09/19 02:21:06;;;;;;;8.98;1.60;;;;;;;15.09;70.40;100803.69;5044655;28;20131;-67
2023/09/19 02:23:33;;;;;;;10.27;2.70;;;;;;;15.07;70.95;100797.63;5043356;28;20029;-68
2023/09/19 02:26:00;;;;;;;7.07;1.95;;;;;;;15.04;71.04;100793.31;5042432;28;20114;-67
2023/09/19 02:28:29;;;;;;;8.35;1.90;;;;;;;15.03;71.51;100796.94;5043664;28;20531;-68
2023/09/19 02:30:55;;;;;;;6.75;2.25;;;;;;;15.00;70.78;100797.94;5042800;28;20029;-67
2023/09/19 02:33:21;;;;;;;14.00;2.80;;;;;;;14.99;70.77;100806.91;5047268;28;20468;-68
2023/09/19 02:35:46;;;;;;;9.15;2.20;;;;;;;14.95;70.83;100802.69;5045042;28;20029;-68
2023/09/19 02:38:12;;;;;;;7.03;1.95;;;;;;;14.92;70.94;100810.88;5032938;28;20028;-68
2023/09/19 02:40:37;;;;;;;4.72;1.70;;;;;;;14.94;70.97;100803.66;5042094;28;20035;-68
2023/09/19 02:43:04;;;;;;;10.90;2.58;;;;;;;14.92;71.60;100812.66;5042047;28;20032;-68
2023/09/19 02:45:30;;;;;;;12.60;2.20;;;;;;;14.91;72.26;100803.81;5040713;28;20120;-68
2023/09/19 02:47:56;;;;;;;8.77;1.83;;;;;;;14.88;70.47;100814.66;5045270;28;20520;-68
2023/09/19 02:50:22;;;;;;;5.05;1.60;;;;;;;14.88;70.59;100813.81;5036894;28;20112;-68
2023/09/19 02:52:51;;;;;;;7.35;1.98;;;;;;;14.78;70.49;100808.13;5034614;28;20088;-67
2023/09/19 02:55:19;;;;;;;7.43;1.90;;;;;;;14.73;70.17;100805.75;5038878;28;20469;-67
2023/09/19 02:57:49;;;;;;;6.93;1.50;;;;;;;14.72;70.86;100806.69;5040162;28;20029;-68
2023/09/19 03:00:14;;;;;;;10.10;1.65;;;;;;;14.74;70.57;100810.16;5048329;28;20029;-68
2023/09/19 03:02:41;;;;;;;9.52;2.03;;;;;;;14.77;69.27;100812.59;5041519;28;20036;-68
2023/09/19 03:05:07;;;;;;;6.60;2.00;;;;;;;14.73;70.12;100820.84;5050744;28;20389;-68
2023/09/19 03:07:33;;;;;;;9.00;2.00;;;;;;;14.74;69.38;100827.94;5046972;28;20079;-68
2023/09/19 03:09:58;;;;;;;8.43;2.10;;;;;;;14.74;70.12;100811.97;5046983;28;20030;-68
2023/09/19 03:12:24;;;;;;;6.90;2.00;;;;;;;14.68;69.18;100818.47;5044194;28;20014;-68
2023/09/19 03:14:50;;;;;;;8.18;2.00;;;;;;;14.69;68.94;100822.00;5049238;28;20029;-68
2023/09/19 03:17:15;;;;;;;10.18;2.03;;;;;;;14.71;68.85;100825.44;5047805;28;20024;-68
2023/09/19 03:19:41;;;;;;;12.85;2.42;;;;;;;14.67;68.65;100823.88;5047565;28;20033;-68
2023/09/19 03:22:07;;;;;;;8.45;1.88;;;;;;;14.66;68.49;100812.38;5042841;28;20495;-68
2023/09/19 03:24:35;;;;;;;6.97;1.77;;;;;;;14.68;68.62;100817.59;5053518;28;20552;-67
2023/09/19 03:27:00;;;;;;;7.35;2.08;;;;;;;14.68;68.44;100818.47;5044349;28;20125;-68
2023/09/19 03:29:26;;;;;;;11.00;2.28;;;;;;;14.66;68.62;100819.50;5045389;28;20029;-68
2023/09/19 03:31:52;;;;;;;6.18;1.77;;;;;;;14.64;68.85;100816.94;5048559;28;20053;-68
2023/09/19 03:34:17;;;;;;;6.63;1.52;;;;;;;14.61;69.05;100818.94;5041948;28;20068;-68
2023/09/19 03:36:42;;;;;;;7.50;1.48;;;;;;;14.61;69.50;100817.13;5040869;28;20396;-68
2023/09/19 03:39:08;;;;;;;4.72;2.00;;;;;;;14.62;69.56;100818.81;5051728;28;20037;-68
2023/09/19 03:41:36;;;;;;;10.32;2.28;;;;;;;14.60;69.22;100826.06;5049120;28;20021;-68
2023/09/19 03:44:01;;;;;;;9.05;1.85;;;;;;;14.61;69.23;100816.25;5045517;28;20025;-67
2023/09/19 03:46:27;;;;;;;7.40;2.00;;;;;;;14.60;70.67;100809.22;5040521;28;20445;-68
2023/09/19 03:48:54;;;;;;;10.82;2.35;;;;;;;14.57;70.47;100802.28;5043746;28;20131;-68
2023/09/19 03:51:19;;;;;;;6.88;1.92;;;;;;;14.57;69.66;100804.94;5041339;28;20025;-67
2023/09/19 03:53:45;;;;;;;7.38;2.17;;;;;;;14.52;69.59;100805.19;5048468;28;20020;-68
2023/09/19 03:56:10;;;;;;;8.75;1.98;;;;;;;14.53;70.57;100801.59;5050845;28;20026;-68
2023/09/19 03:58:39;;;;;;;6.15;1.85;;;;;;;14.58;69.83;100801.31;5024884;28;20037;-68
2023/09/19 04:01:04;;;;;;;6.45;1.60;;;;;;;14.59;70.91;100807.50;5045268;28;20036;-68
2023/09/19 04:03:35;;;;;;;9.00;1.60;;;;;;;14.60;70.20;100810.09;5054589;28;20025;-68
2023/09/19 04:06:01;;;;;;;6.85;1.90;;;;;;;14.61;70.10;100802.97;5045226;28;20052;-68
2023/09/19 04:08:27;;;;;;;6.90;1.55;;;;;;;14.60;70.10;100803.91;5046178;28;20052;-68
2023/09/19 04:10:52;;;;;;;7.70;1.98;;;;;;;14.63;70.38;100807.22;5035609;28;20040;-68
2023/09/19 04:13:18;;;;;;;7.22;1.90;;;;;;;14.65;70.30;100797.38;5046983;28;20418;-68
2023/09/19 04:15:44;;;;;;;6.97;1.73;;;;;;;14.67;70.24;100802.59;5037286;28;20036;-68
2023/09/19 04:18:09;;;;;;;7.45;1.98;;;;;;;14.69;70.44;100801.56;5035298;28;20041;-68
2023/09/19 04:20:34;;;;;;;7.63;1.60;;;;;;;14.69;70.61;100817.53;5040144;28;20444;-68
2023/09/19 04:22:59;;;;;;;6.40;1.80;;;;;;;14.67;71.31;100816.75;5043876;28;20036;-67
2023/09/19 04:25:26;;;;;;;11.55;1.90;;;;;;;14.65;71.40;100820.47;5044037;28;20048;-68
2023/09/19 04:27:51;;;;;;;8.32;1.95;;;;;;;14.67;71.08;100834.53;5044937;28;20468;-68
2023/09/19 04:30:17;;;;;;;10.25;1.90;;;;;;;14.68;71.00;100836.25;5039965;28;20063;-67
2023/09/19 04:32:42;;;;;;;12.45;2.22;;;;;;;14.64;71.41;100829.38;5047772;28;20029;-68
2023/09/19 04:35:10;;;;;;;7.15;2.00;;;;;;;14.63;71.93;100841.81;5041445;28;20455;-67
2023/09/19 04:37:39;;;;;;;10.93;1.70;;;;;;;14.58;72.04;100846.56;5041002;28;20025;-67
2023/09/19 04:40:12;;;;;;;5.95;3.05;;;;;;;14.65;71.68;100847.94;5041971;28;20537;-68
2023/09/19 04:42:39;;;;;;;7.60;2.03;;;;;;;14.68;71.78;100862.84;5027760;28;20475;-68
2023/09/19 04:45:05;;;;;;;10.13;2.60;;;;;;;14.71;72.13;100860.88;5042816;28;20029;-68
2023/09/19 04:47:30;;;;;;;7.05;1.98;;;;;;;14.76;71.65;100869.44;5039593;28;20022;-68
2023/09/19 04:49:56;;;;;;;8.52;2.33;;;;;;;14.85;71.59;100873.41;5032985;28;20025;-68
2023/09/19 04:52:22;;;;;;;10.43;2.22;;;;;;;14.89;71.27;100872.28;5053321;28;20029;-68
2023/09/19 04:54:48;;;;;;;4.95;2.22;;;;;;;14.93;71.46;100876.47;5033956;28;20033;-68
2023/09/19 04:57:13;;;;;;;11.70;2.10;;;;;;;14.94;71.22;100880.84;5044140;28;20028;-68
2023/09/19 04:59:41;;;;;;;8.88;1.98;;;;;;;14.97;70.98;100879.84;5036397;28;20387;-68
2023/09/19 05:02:08;;;;;;;10.77;2.35;;;;;;;14.98;70.75;100878.88;5042917;28;20037;-67
2023/09/19 05:04:33;;;;;;;12.55;2.50;;;;;;;14.95;71.88;100876.38;5045793;28;20021;-68
2023/09/19 05:07:00;;;;;;;8.10;2.20;;;;;;;14.87;71.38;100881.28;5045818;28;20457;-67
2023/09/19 05:09:26;;;;;;;6.57;1.98;;;;;;;14.89;71.12;100879.41;5044128;28;20087;-68
2023/09/19 05:11:52;;;;;;;7.43;1.80;;;;;;;14.86;71.72;100879.56;5044939;28;20024;-68
2023/09/19 05:14:18;;;;;;;9.10;2.15;;;;;;;14.79;72.11;100879.09;5042380;28;20536;-68
2023/09/19 05:16:44;;;;;;;4.00;1.35;;;;;;;14.76;72.18;100879.25;5045528;28;20025;-67
2023/09/19 05:19:11;;;;;;;10.98;2.13;;;;;;;14.82;71.73;100875.38;5042745;28;20033;-68
2023/09/19 05:21:38;;;;;;;8.80;1.70;;;;;;;14.80;71.47;100878.97;5046598;28;20021;-68
2023/09/19 05:24:06;;;;;;;11.10;2.53;;;;;;;14.78;72.32;100885.31;5037632;28;20524;-68
2023/09/19 05:26:31;;;;;;;7.70;1.98;;;;;;;14.80;72.53;100886.97;5042366;28;20151;-68
2023/09/19 05:28:57;;;;;;;10.77;2.63;;;;;;;14.77;72.34;100887.13;5042474;28;20068;-68
2023/09/19 05:31:23;;;;;;;8.88;1.98;;;;;;;14.77;72.60;100881.81;5044130;28;20024;-68
2023/09/19 05:33:49;;;;;;;11.18;1.58;;;;;;;14.82;72.49;100891.34;5049999;28;20484;-68
2023/09/19 05:36:16;;;;;;;9.45;1.80;;;;;;;14.80;72.70;100889.63;5043511;28;20021;-68
2023/09/19 05:38:42;;;;;;;8.23;1.90;;;;;;;14.80;72.78;100888.78;5051044;28;20373;-68
2023/09/19 05:41:09;;;;;;;10.23;2.08;;;;;;;14.84;73.10;100882.34;5037480;28;20072;-68
2023/09/19 05:43:37;;;;;;;5.47;1.90;;;;;;;14.80;73.43;100886.97;5039532;28;20025;-68
2023/09/19 05:46:02;;;;;;;9.73;1.77;;;;;;;14.85;73.32;100894.69;5038213;28;20048;-68
2023/09/19 05:48:28;;;;;;;8.50;2.05;;;;;;;14.89;73.10;100892.72;5034303;28;20431;-68
2023/09/19 05:50:53;;;;;;;4.90;1.83;;;;;;;14.93;73.39;100891.59;5041697;28;20107;-67
2023/09/19 05:53:18;;;;;;;9.52;2.20;;;;;;;14.96;72.93;100889.59;5038468;28;20025;-68
2023/09/19 05:55:44;;;;;;;8.20;2.05;;;;;;;14.94;73.15;100887.97;5035471;28;20035;-68
2023/09/19 05:58:10;;;;;;;5.95;1.63;;;;;;;14.97;73.33;100882.50;5044557;28;20238;-68
2023/09/19 06:00:36;;;;;;;5.35;1.58;;;;;;;14.95;72.98;100879.91;5044108;28;20020;-68
2023/09/19 06:03:02;;;;;;;8.40;2.10;;;;;;;15.00;73.39;100883.16;5041386;28;20040;-68
2023/09/19 06:05:29;;;;;;;8.43;2.00;;;;;;;15.11;72.88;100890.53;5047790;28;20388;-68
2023/09/19 06:07:54;;;;;;;8.13;2.10;;;;;;;15.16;72.98;100880.47;5047753;28;20036;-68
2023/09/19 06:10:23;;;;;;;7.90;1.90;;;;;;;15.17;72.33;100890.16;5035469;28;20032;-69
2023/09/19 06:12:48;;;;;;;9.13;1.90;;;;;;;15.19;72.91;100895.41;5043416;28;20032;-68
2023/09/19 06:15:15;;;;;;;9.43;2.17;;;;;;;15.21;72.90;100889.06;5043493;28;20039;-69
2023/09/19 06:17:55;;;;;;;12.20;2.47;;;;;;;15.03;73.00;100884.78;5039224;28;20531;-68
2023/09/19 06:20:23;;;;;;;8.32;2.50;;;;;;;15.22;73.28;100895.22;5050487;28;20605;-69
2023/09/19 06:22:48;;;;;;;9.20;1.88;;;;;;;15.31;72.67;100902.69;5047630;28;20029;-69
2023/09/19 06:25:21;;;;;;;8.57;2.10;;;;;;;15.29;72.79;100902.78;5039520;28;20041;-69
2023/09/19 06:27:48;;;;;;;8.98;2.25;;;;;;;15.28;73.10;100902.84;5039147;28;20033;-69
2023/09/19 06:30:14;;;;;;;6.88;2.10;;;;;;;15.30;73.31;100896.50;5040908;28;20509;-69
2023/09/19 06:32:40;;;;;;;8.43;2.03;;;;;;;15.29;73.05;100905.44;5047739;28;20144;-69
2023/09/19 06:35:10;;;;;;;7.55;1.98;;;;;;;15.31;73.34;100916.84;5045970;28;20036;-68
2023/09/19 06:37:38;;;;;;;10.93;2.30;;;;;;;15.37;73.40;100920.09;5050469;28;20036;-68
2023/09/19 06:40:08;;;;;;;8.05;2.50;;;;;;;15.47;73.01;100927.44;5043677;28;20473;-69
2023/09/19 06:42:35;;;;;;;9.32;2.25;;;;;;;15.48;72.33;100921.19;5045523;28;20110;-69
2023/09/19 06:45:00;;;;;;;13.52;2.50;;;;;;;15.55;72.61;100929.69;5043387;28;20041;-69
2023/09/19 06:47:25;;;;;;;8.25;1.88;;;;;;;15.59;72.44;100923.22;5047943;28;20028;-69
2023/09/19 06:49:51;;;;;;;9.25;1.90;;;;;;;15.59;72.53;100931.22;5058194;28;20025;-69
2023/09/19 06:52:17;;;;;;;7.20;1.75;;;;;;;15.60;72.88;100932.91;5043020;28;20063;-69
2023/09/19 06:54:42;;;;;;;9.13;2.17;;;;;;;15.61;72.52;100931.09;5053155;28;20423;-69
2023/09/19 06:57:10;;;;;;;8.60;1.85;;;;;;;15.62;73.07;100939.03;5061145;28;20033;-69
2023/09/19 06:59:37;;;;;;;15.07;2.67;;;;;;;15.65;72.62;100932.69;5044094;28;20129;-69
2023/09/19 07:02:02;;;;;;;10.95;2.22;;;;;;;15.74;72.21;100929.47;5037933;28;20032;-69
2023/09/19 07:04:27;;;;;;;6.15;2.08;;;;;;;15.73;72.71;100923.28;5044010;28;20024;-69
2023/09/19 07:06:53;;;;;;;9.88;2.65;;;;;;;15.80;72.52;100926.41;5042454;28;20496;-70
2023/09/19 07:09:22;;;;;;;10.93;2.47;;;;;;;15.88;72.08;100937.47;5042186;28;20105;-70
2023/09/19 07:11:50;;;;;;;9.52;2.40;;;;;;;15.88;71.83;100932.16;5035527;28;20040;-69
2023/09/19 07:14:15;;;;;;;13.85;2.47;;;;;;;15.94;72.30;100928.25;5046007;28;20025;-69
2023/09/19 07:16:44;;;;;;;11.25;2.22;;;;;;;16.01;71.71;100942.94;5047127;28;20427;-69
2023/09/19 07:19:09;;;;;;;10.02;1.92;;;;;;;15.96;71.80;100932.53;5046054;28;20049;-70
2023/09/19 07:21:38;;;;;;;5.50;1.73;;;;;;;15.99;71.78;100937.69;5045499;28;20040;-70
2023/09/19 07:24:04;;;;;;;6.57;1.90;;;;;;;16.01;71.36;100933.13;5052232;28;20580;-69
2023/09/19 07:26:31;;;;;;;6.93;1.95;;;;;;;16.10;71.89;100938.84;5045050;28;20097;-68
2023/09/19 07:28:57;;;;;;;11.45;2.63;;;;;;;16.18;70.89;100937.44;5039321;28;20033;-69
2023/09/19 07:31:22;;;;;;;7.05;1.73;;;;;;;16.19;71.13;100935.63;5048141;28;20025;-68
2023/09/19 07:33:48;;;;;;;11.05;1.80;;;;;;;16.22;70.93;100928.25;5038575;28;20028;-69
2023/09/19 07:36:13;;;;;;;12.68;1.92;;;;;;;16.28;71.47;100927.03;5044311;28;20028;-68
2023/09/19 07:38:40;;;;;;;8.25;1.90;;;;;;;16.26;70.93;100931.59;5027140;28;20056;-69
2023/09/19 07:41:06;;;;;;;10.20;2.20;;;;;;;16.36;70.99;100934.53;5049682;28;20017;-69
2023/09/19 07:43:33;;;;;;;7.00;2.10;;;;;;;16.50;70.56;100939.88;5035172;28;20032;-69
2023/09/19 07:46:03;;;;;;;7.13;1.95;;;;;;;16.68;70.17;100943.19;5042701;28;20393;-69
2023/09/19 07:48:28;;;;;;;8.88;2.15;;;;;;;16.82;69.44;100943.19;5042067;28;20025;-68
2023/09/19 07:50:54;;;;;;;7.57;2.10;;;;;;;16.88;68.62;100939.25;5043795;28;20021;-69
2023/09/19 07:53:20;;;;;;;12.40;1.95;;;;;;;16.94;68.72;100947.75;5042441;28;20028;-69
2023/09/19 07:55:47;;;;;;;8.77;2.13;;;;;;;17.07;68.01;100942.47;5037786;28;20032;-69
2023/09/19 07:58:13;;;;;;;12.50;2.08;;;;;;;17.24;68.00;100933.31;5045428;28;20025;-69
2023/09/19 08:00:38;;;;;;;11.73;1.83;;;;;;;17.33;66.89;100938.03;5036285;28;20074;-69
2023/09/19 08:03:05;;;;;;;8.18;1.88;;;;;;;17.46;66.90;100936.28;5040339;28;20037;-69
2023/09/19 08:05:33;;;;;;;12.60;2.22;;;;;;;17.61;66.76;100945.06;5043888;28;20047;-69
2023/09/19 08:07:59;;;;;;;11.15;2.28;;;;;;;17.90;65.91;100937.75;5040145;28;20045;-69
2023/09/19 08:10:27;;;;;;;9.68;2.30;;;;;;;18.07;65.70;100961.50;5045900;28;20032;-69
2023/09/19 08:12:57;;;;;;;9.98;2.38;;;;;;;18.00;64.92;100945.97;5037056;28;20021;-70
2023/09/19 08:15:23;;;;;;;10.05;2.33;;;;;;;18.05;65.28;100958.09;5042548;28;20101;-69
2023/09/19 08:17:49;;;;;;;13.65;2.53;;;;;;;18.22;64.48;100954.22;5038484;28;20779;-69
2023/09/19 08:20:18;;;;;;;10.55;2.70;;;;;;;18.12;64.08;100942.47;5038415;28;20025;-69
2023/09/19 08:22:47;;;;;;;10.85;2.53;;;;;;;18.43;64.66;100943.84;5032490;28;20030;-69
2023/09/19 08:25:13;;;;;;;9.05;2.15;;;;;;;18.51;63.54;100937.91;5042995;28;20028;-69
2023/09/19 08:27:39;;;;;;;10.23;1.95;;;;;;;18.53;63.62;100931.50;5051152;28;20044;-70
2023/09/19 08:30:05;;;;;;;9.13;2.10;;;;;;;18.55;63.73;100937.59;5039334;28;20028;-70
2023/09/19 08:32:30;;;;;;;6.00;2.10;;;;;;;18.66;63.59;100938.66;5037321;28;20029;-70
2023/09/19 08:34:55;;;;;;;10.85;2.25;;;;;;;18.87;62.80;100950.50;5047484;28;20029;-70
2023/09/19 08:37:21;;;;;;;9.60;2.15;;;;;;;18.79;62.03;100951.06;5037967;28;20085;-70
2023/09/19 08:39:46;;;;;;;9.02;2.22;;;;;;;18.85;62.48;100947.09;5039067;28;20025;-70
2023/09/19 08:42:12;;;;;;;8.07;2.30;;;;;;;19.23;61.97;100938.88;5041215;28;20117;-69
2023/09/19 08:44:40;;;;;;;8.85;2.45;;;;;;;19.57;60.71;100920.25;5049605;28;20045;-70
2023/09/19 08:47:11;;;;;;;7.53;1.80;;;;;;;19.67;59.97;100941.88;5041149;28;20029;-69
2023/09/19 08:49:59;;;;;;;6.10;1.90;;;;;;;19.49;60.28;100947.66;5042908;28;20025;-69
2023/09/19 08:52:35;;;;;;;10.38;2.05;;;;;;;19.37;61.42;100937.84;5035799;28;20543;-69
2023/09/19 08:55:04;;;;;;;8.50;2.10;;;;;;;19.64;61.00;100945.66;5038778;28;20029;-70
2023/09/19 08:57:34;;;;;;;9.40;1.85;;;;;;;19.52;59.66;100951.91;5034069;28;20526;-69
2023/09/19 09:00:01;;;;;;;7.75;1.83;;;;;;;19.81;59.06;100947.88;5044226;28;20082;-70
2023/09/19 09:02:33;;;;;;;7.38;1.95;;;;;;;20.52;58.27;100947.75;5037314;28;20033;-69
2023/09/19 09:04:59;;;;;;;;;;;;;;;21.15;57.10;100941.63;5038973;28;20570;-69
2023/09/19 09:07:24;;;;;;;12.52;2.25;;;;;;;21.15;55.13;100938.94;5046085;28;19925;-68
2023/09/19 09:09:50;;;;;;;7.40;2.17;;;;;;;21.07;56.73;100932.50;5041408;28;20033;-69
2023/09/19 09:12:16;;;;;;;9.27;2.22;;;;;;;21.67;54.20;100946.34;5034111;28;20029;-69
2023/09/19 09:14:48;;;;;;;8.02;1.98;;;;;;;21.78;53.96;100939.06;5040968;28;20132;-70
2023/09/19 09:17:14;;;;;;;9.35;2.05;;;;;;;22.12;51.50;100939.72;5038809;28;20041;-70
2023/09/19 09:19:39;;;;;;;17.50;2.33;;;;;;;22.17;53.55;100943.84;5045873;28;20577;-69
2023/09/19 09:22:09;;;;;;;6.38;1.88;;;;;;;22.17;53.70;100941.16;5042744;28;20120;-70
2023/09/19 09:24:37;;;;;;;7.63;2.13;;;;;;;22.46;50.76;100944.81;5038221;28;20028;-70
2023/09/19 09:27:10;;;;;;;8.90;2.28;;;;;;;22.57;50.92;100938.47;5040664;28;20491;-70
2023/09/19 09:29:51;;;;;;;9.52;2.10;;;;;;;22.60;50.54;100938.22;5038034;28;20197;-70
2023/09/19 09:32:33;;;;;;;8.37;2.10;;;;;;;22.79;51.48;100943.66;5045073;28;20385;-70
2023/09/19 09:35:00;;;;;;;8.85;2.15;;;;;;;23.39;49.34;100941.78;5049822;28;20420;-70
2023/09/19 09:37:28;;;;;;;10.63;2.10;;;;;;;23.77;47.02;100926.56;5047395;28;20036;-70
2023/09/19 09:39:58;;;;;;;9.07;1.70;;;;;;;24.12;47.16;100920.53;5047972;28;20033;-70
2023/09/19 09:42:35;;;;;;;10.85;2.72;;;;;;;24.24;48.00;100929.28;5032046;28;20049;-70
2023/09/19 09:45:13;;;;;;;11.13;1.85;;;;;;;23.80;46.11;100926.28;5042560;28;20089;-70
2023/09/19 09:47:57;;;;;;;11.32;2.13;;;;;;;23.75;47.70;100915.06;5041942;28;20043;-70
2023/09/19 09:53:25;;;;;;;10.20;2.13;;;;;;;24.93;43.44;100928.81;5055089;28;20040;-71
2023/09/19 09:56:08;;;;;;;6.88;1.85;;;;;;;24.37;45.94;100919.03;5038180;28;20029;-70
2023/09/19 09:58:36;;;;;;;11.52;2.55;;;;;;;24.83;44.42;100919.91;5042897;28;20028;-70
2023/09/19 10:01:08;;;;;;;7.03;2.30;;;;;;;25.67;41.52;100916.84;5044770;28;20061;-70
2023/09/19 10:03:39;;;;;;;9.82;2.33;;;;;;;25.66;41.81;100922.41;5033705;28;20993;-70
2023/09/19 10:06:21;;;;;;;8.38;2.50;;;;;;;25.90;41.50;100921.78;5040291;28;20471;-70
2023/09/19 10:09:04;;;;;;;9.40;2.00;;;;;;;26.88;40.59;100909.53;5043561;28;20069;-70
2023/09/19 10:11:30;;;;;;;8.60;2.00;;;;;;;26.74;39.75;100921.03;5043929;28;20052;-71
2023/09/19 10:13:57;;;;;;;9.40;2.33;;;;;;;26.23;40.50;100920.09;5036880;28;20105;-68
2023/09/19 10:16:24;;;;;;;7.50;2.10;;;;;;;26.77;39.37;100936.16;5039065;28;20490;-69
2023/09/19 10:18:54;;;;;;;5.57;1.60;;;;;;;25.32;40.90;100930.41;5035044;28;20044;-68
2023/09/19 10:21:22;;;;;;;6.10;2.13;;;;;;;25.62;41.11;100913.75;5044016;28;20017;-69
2023/09/19 10:23:51;;;;;;;12.32;2.35;;;;;;;24.86;42.66;100922.31;5052902;28;20029;-68
2023/09/19 10:26:17;;;;;;;6.90;1.60;;;;;;;25.64;41.18;100916.28;5047209;28;20036;-69
2023/09/19 10:28:50;;;;;;;10.30;2.30;;;;;;;26.51;40.21;100907.22;5046426;28;20024;-69
2023/09/19 10:31:21;;;;;;;7.78;1.85;;;;;;;26.54;40.24;100925.88;5051789;28;20040;-69
2023/09/19 10:33:48;;;;;;;7.68;2.03;;;;;;;26.96;39.47;100914.16;5036455;28;20584;-69
2023/09/19 10:36:15;;;;;;;7.45;1.88;;;;;;;26.14;40.41;100912.94;5042334;28;20062;-68
2023/09/19 10:38:43;;;;;;;6.90;2.58;;;;;;;25.84;40.00;100917.84;5039278;28;20029;-68
2023/09/19 10:41:14;;;;;;;9.25;1.92;;;;;;;26.03;39.10;100916.78;5043388;28;20032;-69
2023/09/19 10:43:44;;;;;;;9.63;1.90;;;;;;;26.31;39.30;100922.88;5029689;28;20026;-68
2023/09/19 10:46:12;;;;;;;6.90;2.35;;;;;;;26.79;39.50;100918.66;5036900;28;20030;-68
2023/09/19 10:48:39;;;;;;;7.35;1.80;;;;;;;25.93;38.70;100916.06;5042356;28;20024;-68
2023/09/19 10:51:28;;;;;;;8.23;2.30;;;;;;;25.92;41.46;100917.03;5041545;28;20094;-68
2023/09/19 10:54:13;;;;;;;8.27;2.03;;;;;;;26.39;40.85;100924.75;5044376;28;20503;-68
2023/09/19 10:56:44;;;;;;;7.25;2.05;;;;;;;25.88;40.87;100904.81;5034890;28;20378;-68
2023/09/19 10:59:16;;;;;;;10.23;2.13;;;;;;;26.30;40.07;100910.34;5037092;28;20034;-69
2023/09/19 11:01:57;;;;;;;6.90;1.52;;;;;;;25.77;39.81;100892.41;5036306;28;20440;-69
2023/09/19 11:04:32;;;;;;;3.60;1.60;;;;;;;24.66;41.65;100915.31;5031780;28;20709;-68
2023/09/19 11:07:14;;;;;;;3.95;1.27;;;;;;;24.97;41.41;100910.44;5035909;28;20443;-69
2023/09/19 11:09:53;;;;;;;8.35;1.70;;;;;;;24.97;42.31;100887.94;5037897;28;20077;-68
2023/09/19 11:12:31;;;;;;;6.10;1.95;;;;;;;24.92;41.02;100874.88;5029508;28;20098;-69
2023/09/19 11:14:58;;;;;;;8.25;2.15;;;;;;;24.56;42.59;100876.69;5040098;28;20388;-68
2023/09/19 11:17:42;;;;;;;5.60;1.52;;;;;;;24.81;42.70;100862.44;5018000;28;20026;-69
2023/09/19 11:22:58;;;;;;;5.28;1.50;;;;;;;24.12;43.12;100879.16;5038679;28;20056;-69
2023/09/19 11:25:47;;;;;;;4.32;1.70;;;;;;;24.03;43.34;100870.09;5041680;28;20036;-68
2023/09/19 11:28:17;;;;;;;7.78;1.67;;;;;;;24.49;42.25;100870.19;5038912;28;20480;-68
2023/09/19 11:30:44;;;;;;;5.57;1.45;;;;;;;24.58;41.50;100861.19;5048881;28;20092;-69
2023/09/19 11:33:33;;;;;;;6.22;1.98;;;;;;;24.82;42.06;100874.94;5045046;28;20494;-68
2023/09/19 11:36:00;;;;;;;12.13;1.60;;;;;;;24.31;41.80;100857.44;5052423;28;20029;-69